Gardner, MA

11:39 PM EST on December 28, 2014 (GMT -0500)
GardnerHey | Change Station
CLOSE
Current Station
Personal Weather Station
Location: Gardner, MA
Elevation: 1089 ft
Nearby Weather Stations

Elev 1089 ft 42.55 °N, 71.97 °W | Updated 9 minutes ago

Partly Cloudy
Partly Cloudy
31.5 °F
Feels Like 32 °F
N
0.0
Wind Variable Wind from East

Today
High -- | Low -- °F
--% Chance of Precip.
Yesterday
High -- | Low -- °F
Precip. -- in
7:17 AM 4:22 PM
First Quarter, 55% visible
Pressure 30.00 in
Visibility 10.0 miles
Clouds Clear
Windchill 32 °F
Dew Point 26 °F
Humidity 80%
Rainfall 0.10 in
Snow Depth Not available.
UV 0 out of 12
Pollen .10 out of 12
Air Quality Not available.
Flu Activity Not available.
METAR KFIT 290352Z AUTO 30005KT 10SM CLR 02/M04 A2999 RMK AO2 SLP158 T00221039

More Conditions Fewer Conditions

Pressure 30.00 in
Visibility 10.0 miles
Clouds Clear
Windchill 32 °F
Dew Point 26 °F
Humidity 80%
Rainfall 0.10 in
Snow Depth Not available.
UV 0 out of 12
Pollen .10 out of 12
Air Quality Not available.
Flu Activity Not available.
METAR KFIT 290352Z AUTO 30005KT 10SM CLR 02/M04 A2999 RMK AO2 SLP158 T00221039

More Conditions Fewer Conditions

10-Day Weather Forecast

Almanac

Astronomy

Dec. 28, 2014 Rise Set
Actual Time
Civil Twilight
Nautical Twilight
Astronomical Twilight
Moon
Length of Visible Light
Length of Day
Tomorrow will be .
, % of the Moon is Illuminated

Today's Extremes

State Highs State Lows

Community

WunderPhotos

Upload Photos

1,781,530 photos uploaded!

WunderBlogs® & News

Nearby

Air Quality

  Air Quality AQ Index Pollutant
Not available.

Snow Depth

Station Depth Elevation

Earthquake Activity

City Distance Mag. Time & Date
Minimum magnitude displayed is 2.5.

Coastal Water Temperatures

Place Temperature

Nearby Weather Stations